Time;durP1;ratioP1;P1;durP2;ratioP2;P2;SDS_P1;SDS_P2;PMS_P1;PMS_P2;Temp;Humidity;BMP_temperature;BMP_pressure;BME280_temperature;BME280_humidity;BME280_pressure;Samples;Min_cycle;Max_cycle;Signal;HPM_P1;HPM_P2
2022/06/10 00:00:02;;;;;;;;;;;;;;;;;;4959818;28;136763;-64
2022/06/10 00:02:30;;;;;;;;;;;;;;;;;;4961381;28;106704;-63
2022/06/10 00:04:56;;;;;;;;;;;;;;;;;;4966288;28;128008;-64
2022/06/10 00:07:23;;;;;;;;;;;;;;;;;;4960860;28;137182;-65
2022/06/10 00:09:50;;;;;;;;;;;;;;;;;;4965939;28;136237;-66
2022/06/10 00:12:17;;;;;;;;;;;;;;;;;;4963007;28;124436;-65
2022/06/10 00:14:44;;;;;;;;;;;;;;;;;;4964568;28;125822;-63
2022/06/10 00:17:10;;;;;;;;;;;;;;;;;;4964824;28;126306;-64
2022/06/10 00:19:36;;;;;;;;;;;;;;;;;;4966925;28;129951;-64
2022/06/10 00:22:03;;;;;;;;;;;;;;;;;;4962067;28;132534;-66
2022/06/10 00:24:29;;;;;;;;;;;;;;;;;;4964332;28;105668;-64
2022/06/10 00:26:55;;;;;;;;;;;;;;;;;;4967486;28;137303;-64
2022/06/10 00:29:22;;;;;;;;;;;;;;;;;;4961831;28;129395;-65
2022/06/10 00:31:48;;;;;;;;;;;;;;;;;;4968315;28;118603;-64
2022/06/10 00:34:14;;;;;;;;;;;;;;;;;;4957207;28;135266;-64
2022/06/10 00:36:41;;;;;;;;;;;;;;;;;;4968197;28;123690;-64
2022/06/10 00:39:07;;;;;;;;;;;;;;;;;;4964671;28;128511;-65
2022/06/10 00:41:33;;;;;;;;;;;;;;;;;;4964769;28;135870;-64
2022/06/10 00:43:59;;;;;;;;;;;;;;;;;;4962397;28;129116;-64
2022/06/10 00:46:26;;;;;;;;;;;;;;;;;;4963236;28;135923;-64
2022/06/10 00:48:52;;;;;;;;;;;;;;;;;;4967352;28;135714;-66
2022/06/10 00:51:19;;;;;;;;;;;;;;;;;;4962355;28;120426;-66
2022/06/10 00:53:46;;;;;;;;;;;;;;;;;;4967422;28;138005;-66
2022/06/10 00:56:12;;;;;;;;;;;;;;;;;;4959943;28;137710;-66
2022/06/10 00:58:40;;;;;;;;;;;;;;;;;;4966814;28;129996;-66
2022/06/10 01:01:07;;;;;;;;;;;;;;;;;;4963048;28;125464;-66
2022/06/10 01:03:33;;;;;;;;;;;;;;;;;;4983012;28;106789;-66
2022/06/10 01:06:00;;;;;;;;;;;;;;;;;;4956435;28;135242;-66
2022/06/10 01:08:26;;;;;;;;;;;;;;;;;;4962291;28;136796;-66
2022/06/10 01:10:52;;;;;;;;;;;;;;;;;;4964705;28;125297;-66
2022/06/10 01:13:19;;;;;;;;;;;;;;;;;;4965916;28;132146;-66
2022/06/10 01:15:45;;;;;;;;;;;;;;;;;;4958508;28;122229;-64
2022/06/10 01:18:12;;;;;;;;;;;;;;;;;;4965885;28;110751;-64
2022/06/10 01:20:38;;;;;;;;;;;;;;;;;;4957368;28;127376;-64
2022/06/10 01:23:04;;;;;;;;;;;;;;;;;;4970264;28;137169;-65
2022/06/10 01:25:31;;;;;;;;;;;;;;;;;;4963075;28;135956;-64
2022/06/10 01:27:57;;;;;;;;;;;;;;;;;;4967060;28;137979;-64
2022/06/10 01:30:23;;;;;;;;;;;;;;;;;;4965600;28;126332;-64
2022/06/10 01:32:49;;;;;;;;;;;;;;;;;;4965477;28;106769;-64
2022/06/10 01:35:17;;;;;;;;;;;;;;;;;;4963824;28;135801;-64
2022/06/10 01:37:44;;;;;;;;;;;;;;;;;;4966472;28;117951;-64
2022/06/10 01:40:10;;;;;;;;;;;;;;;;;;4959044;28;130040;-64
2022/06/10 01:42:36;;;;;;;;;;;;;;;;;;4963163;28;135448;-65
2022/06/10 01:45:03;;;;;;;;;;;;;;;;;;4962257;28;120323;-64
2022/06/10 01:47:29;;;;;;;;;;;;;;;;;;4965660;28;136518;-64
2022/06/10 01:49:56;;;;;;;;;;;;;;;;;;4957352;28;116958;-64
2022/06/10 01:52:23;;;;;;;;;;;;;;;;;;4978254;28;136606;-65
2022/06/10 01:54:50;;;;;;;;;;;;;;;;;;4957575;28;138128;-65
2022/06/10 01:57:16;;;;;;;;;;;;;;;;;;4964534;28;128157;-64
2022/06/10 01:59:44;;;;;;;;;;;;;;;;;;4956998;28;125041;-65
2022/06/10 02:02:10;;;;;;;;;;;;;;;;;;4963126;28;124572;-64
2022/06/10 02:04:37;;;;;;;;;;;;;;;;;;4966769;28;127880;-65
2022/06/10 02:07:03;;;;;;;;;;;;;;;;;;4966885;28;136657;-64
2022/06/10 02:09:29;;;;;;;;;;;;;;;;;;4961454;28;130243;-64
2022/06/10 02:11:56;;;;;;;;;;;;;;;;;;4962753;28;134351;-64
2022/06/10 02:14:39;;;;;;;;;;;;;;;;;;4960188;28;135532;-64
2022/06/10 02:17:06;;;;;;;;;;;;;;;;;;4960250;28;127224;-64
2022/06/10 02:19:32;;;;;;;;;;;;;;;;;;4965368;28;136597;-64
2022/06/10 02:21:58;;;;;;;;;;;;;;;;;;4965756;28;107848;-64
2022/06/10 02:24:24;;;;;;;;;;;;;;;;;;4960668;28;129413;-64
2022/06/10 02:26:51;;;;;;;;;;;;;;;;;;4959981;28;112488;-64
2022/06/10 02:29:17;;;;;;;;;;;;;;;;;;4964876;28;128055;-64
2022/06/10 02:31:44;;;;;;;;;;;;;;;;;;4963117;28;126935;-64
2022/06/10 02:34:10;;;;;;;;;;;;;;;;;;4966441;28;130195;-64
2022/06/10 02:36:36;;;;;;;;;;;;;;;;;;4957406;28;116793;-65
2022/06/10 02:39:03;;;;;;;;;;;;;;;;;;4965272;28;129176;-64
2022/06/10 02:41:29;;;;;;;;;;;;;;;;;;4961552;28;107374;-64
2022/06/10 02:43:55;;;;;;;;;;;;;;;;;;4966908;28;106062;-64
2022/06/10 02:46:22;;;;;;;;;;;;;;;;;;4958921;28;136462;-65
2022/06/10 02:48:48;;;;;;;;;;;;;;;;;;4958520;28;138013;-64
2022/06/10 02:51:16;;;;;;;;;;;;;;;;;;4968274;28;127391;-64
2022/06/10 02:53:42;;;;;;;;;;;;;;;;;;4963328;28;133000;-64
2022/06/10 02:56:08;;;;;;;;;;;;;;;;;;4952257;28;127078;-64
2022/06/10 03:01:20;;;;;;;;;;;;;;;;;;4961367;28;107271;-64
2022/06/10 03:03:47;;;;;;;;;;;;;;;;;;4964117;28;129226;-64
2022/06/10 03:06:13;;;;;;;;;;;;;;;;;;4964734;28;111102;-64
2022/06/10 03:08:40;;;;;;;;;;;;;;;;;;4960204;28;128619;-64
2022/06/10 03:11:07;;;;;;;;;;;;;;;;;;4958962;28;127549;-64
2022/06/10 03:13:34;;;;;;;;;;;;;;;;;;4964899;28;135635;-65
2022/06/10 03:16:01;;;;;;;;;;;;;;;;;;4957744;28;129005;-64
2022/06/10 03:18:27;;;;;;;;;;;;;;;;;;4963318;28;134271;-64
2022/06/10 03:20:53;;;;;;;;;;;;;;;;;;4963681;28;137882;-64
2022/06/10 03:23:22;;;;;;;;;;;;;;;;;;4963550;28;117141;-64
2022/06/10 03:25:48;;;;;;;;;;;;;;;;;;4972478;28;121597;-64
2022/06/10 03:28:14;;;;;;;;;;;;;;;;;;4962589;28;137222;-64
2022/06/10 03:30:41;;;;;;;;;;;;;;;;;;4964695;28;126915;-64
2022/06/10 03:33:07;;;;;;;;;;;;;;;;;;4967250;28;137139;-64
2022/06/10 03:35:33;;;;;;;;;;;;;;;;;;4965569;28;121894;-65
2022/06/10 03:38:00;;;;;;;;;;;;;;;;;;4974624;28;137584;-63
2022/06/10 03:40:26;;;;;;;;;;;;;;;;;;4964725;28;128728;-64
2022/06/10 03:42:52;;;;;;;;;;;;;;;;;;4966555;28;123864;-64
2022/06/10 03:45:19;;;;;;;;;;;;;;;;;;4966498;28;126512;-64
2022/06/10 03:47:45;;;;;;;;;;;;;;;;;;4956548;28;136474;-64
2022/06/10 03:50:12;;;;;;;;;;;;;;;;;;4966778;28;106792;-64
2022/06/10 03:52:39;;;;;;;;;;;;;;;;;;4961758;28;127211;-64
2022/06/10 03:55:05;;;;;;;;;;;;;;;;;;4968998;28;123041;-64
2022/06/10 03:57:31;;;;;;;;;;;;;;;;;;4965992;28;133788;-64
2022/06/10 03:59:57;;;;;;;;;;;;;;;;;;4968306;28;134857;-65
2022/06/10 04:02:24;;;;;;;;;;;;;;;;;;4957864;28;129365;-65
2022/06/10 04:04:51;;;;;;;;;;;;;;;;;;4966522;28;135670;-64
2022/06/10 04:07:17;;;;;;;;;;;;;;;;;;4962232;28;138099;-64
2022/06/10 04:09:44;;;;;;;;;;;;;;;;;;4962418;28;114582;-64
2022/06/10 04:12:10;;;;;;;;;;;;;;;;;;4966049;28;127479;-64
2022/06/10 04:14:36;;;;;;;;;;;;;;;;;;4962484;28;136111;-64
2022/06/10 04:17:03;;;;;;;;;;;;;;;;;;4968972;28;128295;-64
2022/06/10 04:19:29;;;;;;;;;;;;;;;;;;4964404;28;136402;-64
2022/06/10 04:21:55;;;;;;;;;;;;;;;;;;4962383;28;121464;-64
2022/06/10 04:24:22;;;;;;;;;;;;;;;;;;4956230;28;136020;-65
2022/06/10 04:26:48;;;;;;;;;;;;;;;;;;4962426;28;137552;-65
2022/06/10 04:29:14;;;;;;;;;;;;;;;;;;4966942;28;107721;-64
2022/06/10 04:31:41;;;;;;;;;;;;;;;;;;4960946;28;136719;-64
2022/06/10 04:34:07;;;;;;;;;;;;;;;;;;4966403;28;137031;-64
2022/06/10 04:36:33;;;;;;;;;;;;;;;;;;4952872;28;129297;-65
2022/06/10 04:38:59;;;;;;;;;;;;;;;;;;4960823;28;126134;-65
2022/06/10 04:41:26;;;;;;;;;;;;;;;;;;4960783;28;127777;-65
2022/06/10 04:43:52;;;;;;;;;;;;;;;;;;4966490;28;122061;-64
2022/06/10 04:46:18;;;;;;;;;;;;;;;;;;4956778;28;111805;-64
2022/06/10 04:48:45;;;;;;;;;;;;;;;;;;4965101;28;109616;-65
2022/06/10 04:51:11;;;;;;;;;;;;;;;;;;4966383;28;136627;-64
2022/06/10 04:53:38;;;;;;;;;;;;;;;;;;4964174;28;136973;-64
2022/06/10 04:56:04;;;;;;;;;;;;;;;;;;4963089;28;129994;-66
2022/06/10 04:58:30;;;;;;;;;;;;;;;;;;4964368;28;135724;-64
2022/06/10 05:00:57;;;;;;;;;;;;;;;;;;4963119;28;106423;-64
2022/06/10 05:03:23;;;;;;;;;;;;;;;;;;4961796;28;136407;-65
2022/06/10 05:05:49;;;;;;;;;;;;;;;;;;4958741;28;132090;-64
2022/06/10 05:08:15;;;;;;;;;;;;;;;;;;4964365;28;128722;-65
2022/06/10 05:10:42;;;;;;;;;;;;;;;;;;4960942;28;133978;-64
2022/06/10 05:13:08;;;;;;;;;;;;;;;;;;4967025;28;131215;-64
2022/06/10 05:15:35;;;;;;;;;;;;;;;;;;4958955;28;117013;-65
2022/06/10 05:18:02;;;;;;;;;;;;;;;;;;4959231;28;126850;-64
2022/06/10 05:20:28;;;;;;;;;;;;;;;;;;4967570;28;137067;-64
2022/06/10 05:22:54;;;;;;;;;;;;;;;;;;4967799;28;135896;-64
2022/06/10 05:25:21;;;;;;;;;;;;;;;;;;4962238;28;128382;-64
2022/06/10 05:27:47;;;;;;;;;;;;;;;;;;4964920;28;128083;-63
2022/06/10 05:30:13;;;;;;;;;;;;;;;;;;4964665;28;121706;-64
2022/06/10 05:32:39;;;;;;;;;;;;;;;;;;4958684;28;138634;-65
2022/06/10 05:35:06;;;;;;;;;;;;;;;;;;4977173;28;124206;-64
2022/06/10 05:37:33;;;;;;;;;;;;;;;;;;4957014;28;134485;-64
2022/06/10 05:40:00;;;;;;;;;;;;;;;;;;4963332;28;136644;-63
2022/06/10 05:42:26;;;;;;;;;;;;;;;;;;4963432;28;127700;-63
2022/06/10 05:44:52;;;;;;;;;;;;;;;;;;4965207;28;137104;-62
2022/06/10 05:47:19;;;;;;;;;;;;;;;;;;4959724;28;128649;-64
2022/06/10 05:49:45;;;;;;;;;;;;;;;;;;4957631;28;111345;-64
2022/06/10 05:52:12;;;;;;;;;;;;;;;;;;4962776;28;137140;-62
2022/06/10 05:54:38;;;;;;;;;;;;;;;;;;4954612;28;130023;-64
2022/06/10 05:57:04;;;;;;;;;;;;;;;;;;4960767;28;133963;-65
2022/06/10 05:59:33;;;;;;;;;;;;;;;;;;4962601;28;131451;-61
2022/06/10 06:01:59;;;;;;;;;;;;;;;;;;4952415;28;122260;-66
2022/06/10 06:04:26;;;;;;;;;;;;;;;;;;4965126;28;115769;-63
2022/06/10 06:06:53;;;;;;;;;;;;;;;;;;4964382;28;106693;-64
2022/06/10 06:09:19;;;;;;;;;;;;;;;;;;4956988;28;133201;-63
2022/06/10 06:11:48;;;;;;;;;;;;;;;;;;4952683;28;138346;-63
2022/06/10 06:14:14;;;;;;;;;;;;;;;;;;4963634;28;129693;-63
2022/06/10 06:16:41;;;;;;;;;;;;;;;;;;4963582;28;128151;-63
2022/06/10 06:19:07;;;;;;;;;;;;;;;;;;4963210;28;126711;-64
2022/06/10 06:21:33;;;;;;;;;;;;;;;;;;4961701;28;117501;-63
2022/06/10 06:24:00;;;;;;;;;;;;;;;;;;4955592;28;111872;-64
2022/06/10 06:26:26;;;;;;;;;;;;;;;;;;4958068;28;137163;-64
2022/06/10 06:28:52;;;;;;;;;;;;;;;;;;4963564;28;129050;-64
2022/06/10 06:31:19;;;;;;;;;;;;;;;;;;4961585;28;126719;-64
2022/06/10 06:33:45;;;;;;;;;;;;;;;;;;4962414;28;105874;-65
2022/06/10 06:36:11;;;;;;;;;;;;;;;;;;4964820;28;106317;-63
2022/06/10 06:38:38;;;;;;;;;;;;;;;;;;4962680;28;135126;-64
2022/06/10 06:41:04;;;;;;;;;;;;;;;;;;4962028;28;115931;-66
2022/06/10 06:43:30;;;;;;;;;;;;;;;;;;4951106;28;137201;-64
2022/06/10 06:45:57;;;;;;;;;;;;;;;;;;4959855;28;126328;-63
2022/06/10 06:48:23;;;;;;;;;;;;;;;;;;4967025;28;116789;-64
2022/06/10 06:50:49;;;;;;;;;;;;;;;;;;4964476;28;133642;-65
2022/06/10 06:53:16;;;;;;;;;;;;;;;;;;4963534;28;121379;-67
2022/06/10 06:55:42;;;;;;;;;;;;;;;;;;4961403;28;137315;-64
2022/06/10 06:58:09;;;;;;;;;;;;;;;;;;4963341;28;138065;-64
2022/06/10 07:00:35;;;;;;;;;;;;;;;;;;4961307;28;111585;-65
2022/06/10 07:03:01;;;;;;;;;;;;;;;;;;4964451;28;126493;-64
2022/06/10 07:05:28;;;;;;;;;;;;;;;;;;4962466;28;136484;-64
2022/06/10 07:07:54;;;;;;;;;;;;;;;;;;4969994;28;107805;-64
2022/06/10 07:10:20;;;;;;;;;;;;;;;;;;4963153;28;136492;-64
2022/06/10 07:12:47;;;;;;;;;;;;;;;;;;4960901;28;120391;-64
2022/06/10 07:15:13;;;;;;;;;;;;;;;;;;4965570;28;120029;-64
2022/06/10 07:17:40;;;;;;;;;;;;;;;;;;4959968;28;107288;-65
2022/06/10 07:20:06;;;;;;;;;;;;;;;;;;4969510;28;127740;-65
2022/06/10 07:22:32;;;;;;;;;;;;;;;;;;4965970;28;137689;-64
2022/06/10 07:24:59;;;;;;;;;;;;;;;;;;4965324;28;136520;-64
2022/06/10 07:27:25;;;;;;;;;;;;;;;;;;4963909;28;115763;-64
2022/06/10 07:30:00;;;;;;;;;;;;;;;;;;4971278;28;132711;-64
2022/06/10 07:32:27;;;;;;;;;;;;;;;;;;4966066;28;128139;-66
2022/06/10 07:34:53;;;;;;;;;;;;;;;;;;4966582;28;136753;-68
2022/06/10 07:37:19;;;;;;;;;;;;;;;;;;4964005;28;125502;-64
2022/06/10 07:39:46;;;;;;;;;;;;;;;;;;4961896;28;127522;-64
2022/06/10 07:42:12;;;;;;;;;;;;;;;;;;4966398;28;126375;-64
2022/06/10 07:44:38;;;;;;;;;;;;;;;;;;4958018;28;128276;-65
2022/06/10 07:47:05;;;;;;;;;;;;;;;;;;4966201;28;107948;-63
2022/06/10 07:49:31;;;;;;;;;;;;;;;;;;4965051;28;110335;-64
2022/06/10 07:51:57;;;;;;;;;;;;;;;;;;4964861;28;137285;-64
2022/06/10 07:54:24;;;;;;;;;;;;;;;;;;4963535;28;135496;-64
2022/06/10 07:56:50;;;;;;;;;;;;;;;;;;4965309;28;121554;-63
2022/06/10 07:59:17;;;;;;;;;;;;;;;;;;4965705;28;127657;-64
2022/06/10 08:01:43;;;;;;;;;;;;;;;;;;4958567;28;137661;-64
2022/06/10 08:04:09;;;;;;;;;;;;;;;;;;4965081;28;135839;-64
2022/06/10 08:06:36;;;;;;;;;;;;;;;;;;4954730;28;129091;-63
2022/06/10 08:09:02;;;;;;;;;;;;;;;;;;4961546;28;107214;-64
2022/06/10 08:11:29;;;;;;;;;;;;;;;;;;4965735;28;109362;-65
2022/06/10 08:13:55;;;;;;;;;;;;;;;;;;4963902;28;105718;-64
2022/06/10 08:16:23;;;;;;;;;;;;;;;;;;4959512;28;134123;-65
2022/06/10 08:18:50;;;;;;;;;;;;;;;;;;4962409;28;125126;-64
2022/06/10 08:24:01;;;;;;;;;;;;;;;;;;4956877;28;137175;-64
2022/06/10 08:26:28;;;;;;;;;;;;;;;;;;4963578;28;129247;-64
2022/06/10 08:28:54;;;;;;;;;;;;;;;;;;4963599;28;134241;-64
2022/06/10 08:31:21;;;;;;;;;;;;;;;;;;4958132;28;134395;-64
2022/06/10 08:33:47;;;;;;;;;;;;;;;;;;4961517;28;118079;-65
2022/06/10 08:36:13;;;;;;;;;;;;;;;;;;4957740;28;135257;-64
2022/06/10 08:38:42;;;;;;;;;;;;;;;;;;4965866;28;129392;-64
2022/06/10 08:41:12;;;;;;;;;;;;;;;;;;4957002;28;120688;-64
2022/06/10 08:43:39;;;;;;;;;;;;;;;;;;4963950;28;133083;-64
2022/06/10 08:46:05;;;;;;;;;;;;;;;;;;4963800;28;129847;-64
2022/06/10 08:48:32;;;;;;;;;;;;;;;;;;4960694;28;136879;-64
2022/06/10 08:50:58;;;;;;;;;;;;;;;;;;4964232;28;136874;-64
2022/06/10 08:53:24;;;;;;;;;;;;;;;;;;4954348;28;129326;-64
2022/06/10 08:55:50;;;;;;;;;;;;;;;;;;4964922;28;135819;-64
2022/06/10 08:58:17;;;;;;;;;;;;;;;;;;4984418;28;132794;-65
2022/06/10 09:00:44;;;;;;;;;;;;;;;;;;4964533;28;135527;-64
2022/06/10 09:03:10;;;;;;;;;;;;;;;;;;4965549;28;137738;-64
2022/06/10 09:05:36;;;;;;;;;;;;;;;;;;4960708;28;126752;-65
2022/06/10 09:08:02;;;;;;;;;;;;;;;;;;4978630;28;120737;-64
2022/06/10 09:10:29;;;;;;;;;;;;;;;;;;4961839;28;107455;-65
2022/06/10 09:12:56;;;;;;;;;;;;;;;;;;4958015;28;115294;-65
2022/06/10 09:15:22;;;;;;;;;;;;;;;;;;4960920;28;134470;-65
2022/06/10 09:17:48;;;;;;;;;;;;;;;;;;4968620;28;137593;-64
2022/06/10 09:20:15;;;;;;;;;;;;;;;;;;4963110;28;125174;-65
2022/06/10 09:22:41;;;;;;;;;;;;;;;;;;4965152;28;136410;-64
2022/06/10 09:25:07;;;;;;;;;;;;;;;;;;4953520;28;130330;-64
2022/06/10 09:27:33;;;;;;;;;;;;;;;;;;4963478;28;137062;-67
2022/06/10 09:30:03;;;;;;;;;;;;;;;;;;4956323;28;137331;-66
2022/06/10 09:32:30;;;;;;;;;;;;;;;;;;4964547;28;129526;-64
2022/06/10 09:34:56;;;;;;;;;;;;;;;;;;4957786;28;136892;-65
2022/06/10 09:37:22;;;;;;;;;;;;;;;;;;4964223;28;116850;-64
2022/06/10 09:42:35;;;;;;;;;;;;;;;;;;4961371;28;138082;-67
2022/06/10 09:45:03;;;;;;;;;;;;;;;;;;4961190;28;130283;-65
2022/06/10 09:47:30;;;;;;;;;;;;;;;;;;4956413;28;135426;-65
2022/06/10 09:49:56;;;;;;;;;;;;;;;;;;4959952;28;135897;-68
2022/06/10 09:52:22;;;;;;;;;;;;;;;;;;4962760;28;122954;-65
2022/06/10 09:54:48;;;;;;;;;;;;;;;;;;4965543;28;136270;-64
2022/06/10 09:57:15;;;;;;;;;;;;;;;;;;4956618;28;118341;-66
2022/06/10 09:59:41;;;;;;;;;;;;;;;;;;4958694;28;130081;-65
2022/06/10 10:02:07;;;;;;;;;;;;;;;;;;4966763;28;134333;-65
2022/06/10 10:04:34;;;;;;;;;;;;;;;;;;4960631;28;129491;-67
2022/06/10 10:07:00;;;;;;;;;;;;;;;;;;4959362;28;107785;-65
2022/06/10 10:09:27;;;;;;;;;;;;;;;;;;4961723;28;138035;-66
2022/06/10 10:11:53;;;;;;;;;;;;;;;;;;4957826;28;129713;-69
2022/06/10 10:14:20;;;;;;;;;;;;;;;;;;4959703;28;127519;-66
2022/06/10 10:16:47;;;;;;;;;;;;;;;;;;4960461;28;137794;-65
2022/06/10 10:19:13;;;;;;;;;;;;;;;;;;4962360;28;113342;-66
2022/06/10 10:21:39;;;;;;;;;;;;;;;;;;4956475;28;120136;-66
2022/06/10 10:24:06;;;;;;;;;;;;;;;;;;4962385;28;135410;-71
2022/06/10 10:26:32;;;;;;;;;;;;;;;;;;4967902;28;118701;-72
2022/06/10 10:28:58;;;;;;;;;;;;;;;;;;4952564;28;106441;-67
2022/06/10 10:31:25;;;;;;;;;;;;;;;;;;4964397;28;106228;-66
2022/06/10 10:33:55;;;;;;;;;;;;;;;;;;4964272;28;115217;-66
2022/06/10 10:36:21;;;;;;;;;;;;;;;;;;4964387;28;137314;-68
2022/06/10 10:38:48;;;;;;;;;;;;;;;;;;4969200;28;128313;-66
2022/06/10 10:41:15;;;;;;;;;;;;;;;;;;4967171;28;123783;-66
2022/06/10 10:43:41;;;;;;;;;;;;;;;;;;4953138;28;137256;-67
2022/06/10 10:46:07;;;;;;;;;;;;;;;;;;4961130;28;115747;-67
2022/06/10 10:48:34;;;;;;;;;;;;;;;;;;4967762;28;122521;-67
2022/06/10 10:51:00;;;;;;;;;;;;;;;;;;4964902;28;108312;-66
2022/06/10 10:53:26;;;;;;;;;;;;;;;;;;4975511;28;135451;-65
2022/06/10 10:55:53;;;;;;;;;;;;;;;;;;4961552;28;137194;-69
2022/06/10 10:58:20;;;;;;;;;;;;;;;;;;4966144;28;129353;-66
2022/06/10 11:00:47;;;;;;;;;;;;;;;;;;4972297;28;123203;-67
2022/06/10 11:03:13;;;;;;;;;;;;;;;;;;4966002;28;136773;-67
2022/06/10 11:05:39;;;;;;;;;;;;;;;;;;4958870;28;127615;-66
2022/06/10 11:08:06;;;;;;;;;;;;;;;;;;4962250;28;136906;-67
2022/06/10 11:10:33;;;;;;;;;;;;;;;;;;4967686;28;129294;-66
2022/06/10 11:12:59;;;;;;;;;;;;;;;;;;4966039;28;136920;-67
2022/06/10 11:15:27;;;;;;;;;;;;;;;;;;4965634;28;129259;-67
2022/06/10 11:17:53;;;;;;;;;;;;;;;;;;4962161;28;117087;-66
2022/06/10 11:20:19;;;;;;;;;;;;;;;;;;4961209;28;137023;-67
2022/06/10 11:22:46;;;;;;;;;;;;;;;;;;4964803;28;133075;-66
2022/06/10 11:25:15;;;;;;;;;;;;;;;;;;4967528;28;125618;-67
2022/06/10 11:27:41;;;;;;;;;;;;;;;;;;4961077;28;108242;-67
2022/06/10 11:30:08;;;;;;;;;;;;;;;;;;4963029;28;112645;-66
2022/06/10 11:32:34;;;;;;;;;;;;;;;;;;4964921;28;136472;-68
2022/06/10 11:35:02;;;;;;;;;;;;;;;;;;4979805;28;113182;-66
2022/06/10 11:37:28;;;;;;;;;;;;;;;;;;4969192;28;129747;-66
2022/06/10 11:39:56;;;;;;;;;;;;;;;;;;4966421;28;136644;-66
2022/06/10 11:42:28;;;;;;;;;;;;;;;;;;4959203;28;136553;-66
2022/06/10 11:44:56;;;;;;;;;;;;;;;;;;4969292;28;116699;-67
2022/06/10 11:47:22;;;;;;;;;;;;;;;;;;4964212;28;130521;-67
2022/06/10 11:49:48;;;;;;;;;;;;;;;;;;4964482;28;122679;-66
2022/06/10 11:52:15;;;;;;;;;;;;;;;;;;4957289;28;116658;-66
2022/06/10 11:54:41;;;;;;;;;;;;;;;;;;4965069;28;127744;-67
2022/06/10 11:59:52;;;;;;;;;;;;;;;;;;4961046;28;133897;-66
2022/06/10 12:02:18;;;;;;;;;;;;;;;;;;4962092;28;121704;-66
2022/06/10 12:04:45;;;;;;;;;;;;;;;;;;4963243;28;107366;-65
2022/06/10 12:07:11;;;;;;;;;;;;;;;;;;4968587;28;136574;-66
2022/06/10 12:09:38;;;;;;;;;;;;;;;;;;4959025;28;137737;-65
2022/06/10 12:12:04;;;;;;;;;;;;;;;;;;4984402;28;123875;-68
2022/06/10 12:14:31;;;;;;;;;;;;;;;;;;4966374;28;122270;-65
2022/06/10 12:16:58;;;;;;;;;;;;;;;;;;4962950;28;121234;-65
2022/06/10 12:19:24;;;;;;;;;;;;;;;;;;4955725;28;138933;-66
2022/06/10 12:21:51;;;;;;;;;;;;;;;;;;4979140;28;128208;-64
2022/06/10 12:24:17;;;;;;;;;;;;;;;;;;4957715;28;128417;-65
2022/06/10 12:26:46;;;;;;;;;;;;;;;;;;4962570;28;137470;-65
2022/06/10 12:29:12;;;;;;;;;;;;;;;;;;4961800;28;133526;-64
2022/06/10 12:31:39;;;;;;;;;;;;;;;;;;4962429;28;129788;-65
2022/06/10 12:34:06;;;;;;;;;;;;;;;;;;4967107;28;124148;-64
2022/06/10 12:36:32;;;;;;;;;;;;;;;;;;4968886;28;106626;-65
2022/06/10 12:38:58;;;;;;;;;;;;;;;;;;4959138;28;137635;-65
2022/06/10 12:41:25;;;;;;;;;;;;;;;;;;4962711;28;136038;-65
2022/06/10 12:43:53;;;;;;;;;;;;;;;;;;4962356;28;129925;-65
2022/06/10 12:46:19;;;;;;;;;;;;;;;;;;4958384;28;138328;-64
2022/06/10 12:48:46;;;;;;;;;;;;;;;;;;4959033;28;137776;-65
2022/06/10 12:51:13;;;;;;;;;;;;;;;;;;4953254;28;129006;-65
2022/06/10 12:53:39;;;;;;;;;;;;;;;;;;4957887;28;126451;-66
2022/06/10 12:56:05;;;;;;;;;;;;;;;;;;4970360;28;122366;-66
2022/06/10 12:58:32;;;;;;;;;;;;;;;;;;4963338;28;120101;-66
2022/06/10 13:00:58;;;;;;;;;;;;;;;;;;4960599;28;128877;-66
2022/06/10 13:03:24;;;;;;;;;;;;;;;;;;4963893;28;127092;-66
2022/06/10 13:05:51;;;;;;;;;;;;;;;;;;4955993;28;136460;-65
2022/06/10 13:08:17;;;;;;;;;;;;;;;;;;4957990;28;135183;-64
2022/06/10 13:10:44;;;;;;;;;;;;;;;;;;4957599;28;125711;-65
2022/06/10 13:13:10;;;;;;;;;;;;;;;;;;4958158;28;136147;-63
2022/06/10 13:15:37;;;;;;;;;;;;;;;;;;4959220;28;138270;-65
2022/06/10 13:18:03;;;;;;;;;;;;;;;;;;4964029;28;119134;-65
2022/06/10 13:20:30;;;;;;;;;;;;;;;;;;4960869;28;117995;-65
2022/06/10 13:22:56;;;;;;;;;;;;;;;;;;4958388;28;132432;-65
2022/06/10 13:25:23;;;;;;;;;;;;;;;;;;4958434;28;109625;-66
2022/06/10 13:27:49;;;;;;;;;;;;;;;;;;4964315;28;136223;-66
2022/06/10 13:30:16;;;;;;;;;;;;;;;;;;4960517;28;112017;-66
2022/06/10 13:32:47;;;;;;;;;;;;;;;;;;4964827;28;137825;-65
2022/06/10 13:35:14;;;;;;;;;;;;;;;;;;4962544;28;138810;-66
2022/06/10 13:37:40;;;;;;;;;;;;;;;;;;4968323;28;107505;-66
2022/06/10 13:40:06;;;;;;;;;;;;;;;;;;4959966;28;137935;-66
2022/06/10 13:42:33;;;;;;;;;;;;;;;;;;4960945;28;125025;-66
2022/06/10 13:44:59;;;;;;;;;;;;;;;;;;4967999;28;107860;-66
2022/06/10 13:47:25;;;;;;;;;;;;;;;;;;4960913;28;128202;-66
2022/06/10 13:50:11;;;;;;;;;;;;;;;;;;4962315;28;126965;-66
2022/06/10 13:52:38;;;;;;;;;;;;;;;;;;4952655;28;133540;-66
2022/06/10 13:55:04;;;;;;;;;;;;;;;;;;4959888;28;124278;-67
2022/06/10 13:57:30;;;;;;;;;;;;;;;;;;4958922;28;120211;-66
2022/06/10 13:59:58;;;;;;;;;;;;;;;;;;4963562;28;119732;-66
2022/06/10 14:02:27;;;;;;;;;;;;;;;;;;4954532;28;114540;-66
2022/06/10 14:04:54;;;;;;;;;;;;;;;;;;4958402;28;136858;-66
2022/06/10 14:07:20;;;;;;;;;;;;;;;;;;4961249;28;135703;-66
2022/06/10 14:09:46;;;;;;;;;;;;;;;;;;4957966;28;130324;-66
2022/06/10 14:12:13;;;;;;;;;;;;;;;;;;4948407;28;135182;-65
2022/06/10 14:14:39;;;;;;;;;;;;;;;;;;4959968;28;137527;-66
2022/06/10 14:17:08;;;;;;;;;;;;;;;;;;4958936;28;106699;-67
2022/06/10 14:19:34;;;;;;;;;;;;;;;;;;4952970;28;107908;-67
2022/06/10 14:22:07;;;;;;;;;;;;;;;;;;4956843;28;108462;-67
2022/06/10 14:24:34;;;;;;;;;;;;;;;;;;4965544;28;107263;-66
2022/06/10 14:27:03;;;;;;;;;;;;;;;;;;4948665;28;106903;-66
2022/06/10 14:29:29;;;;;;;;;;;;;;;;;;4960467;28;128416;-66
2022/06/10 14:31:56;;;;;;;;;;;;;;;;;;4961280;28;128435;-67
2022/06/10 14:34:22;;;;;;;;;;;;;;;;;;4956674;28;133150;-67
2022/06/10 14:36:48;;;;;;;;;;;;;;;;;;4951067;28;129749;-66
2022/06/10 14:39:15;;;;;;;;;;;;;;;;;;4959198;28;126705;-67
2022/06/10 14:41:41;;;;;;;;;;;;;;;;;;4964847;28;116022;-67
2022/06/10 14:44:07;;;;;;;;;;;;;;;;;;4966952;28;109213;-66
2022/06/10 14:46:34;;;;;;;;;;;;;;;;;;4959559;28;107925;-67
2022/06/10 14:49:01;;;;;;;;;;;;;;;;;;4965619;28;125832;-67
2022/06/10 14:51:28;;;;;;;;;;;;;;;;;;4960001;28;136893;-66
2022/06/10 14:53:55;;;;;;;;;;;;;;;;;;4957974;28;124684;-66
2022/06/10 14:56:21;;;;;;;;;;;;;;;;;;4956940;28;126405;-67
2022/06/10 14:58:47;;;;;;;;;;;;;;;;;;4978524;28;129531;-66
2022/06/10 15:01:14;;;;;;;;;;;;;;;;;;4957769;28;117787;-66
2022/06/10 15:03:40;;;;;;;;;;;;;;;;;;4961268;28;129003;-66
2022/06/10 15:06:17;;;;;;;;;;;;;;;;;;4959147;28;107947;-67
2022/06/10 15:08:45;;;;;;;;;;;;;;;;;;4959194;28;106723;-67
2022/06/10 15:11:11;;;;;;;;;;;;;;;;;;4965505;28;110126;-67
2022/06/10 15:13:37;;;;;;;;;;;;;;;;;;4963144;28;119016;-66
2022/06/10 15:16:03;;;;;;;;;;;;;;;;;;4964470;28;117837;-67
2022/06/10 15:18:30;;;;;;;;;;;;;;;;;;4959192;28;136544;-67
2022/06/10 15:20:56;;;;;;;;;;;;;;;;;;4961084;28;138497;-66
2022/06/10 15:23:22;;;;;;;;;;;;;;;;;;4962106;28;124730;-65
2022/06/10 15:25:49;;;;;;;;;;;;;;;;;;4963434;28;137225;-69
2022/06/10 15:28:15;;;;;;;;;;;;;;;;;;4969963;28;106165;-68
2022/06/10 15:30:44;;;;;;;;;;;;;;;;;;4960099;28;137940;-66
2022/06/10 15:33:14;;;;;;;;;;;;;;;;;;4968457;28;123467;-66
2022/06/10 15:41:11;;;;;;;;;;;;;;;;;;4965556;28;108299;-65
2022/06/10 15:43:37;;;;;;;;;;;;;;;;;;4964792;28;130531;-66
2022/06/10 15:46:03;;;;;;;;;;;;;;;;;;4966301;28;119147;-67
2022/06/10 15:48:30;;;;;;;;;;;;;;;;;;4963230;28;108470;-66
2022/06/10 15:50:56;;;;;;;;;;;;;;;;;;4962446;28;136207;-67
2022/06/10 15:53:23;;;;;;;;;;;;;;;;;;4977126;28;120023;-67
2022/06/10 15:58:34;;;;;;;;;;;;;;;;;;4955666;28;135762;-67
2022/06/10 16:01:00;;;;;;;;;;;;;;;;;;4978508;28;132687;-66
2022/06/10 16:03:27;;;;;;;;;;;;;;;;;;4963423;28;119989;-67
2022/06/10 16:05:53;;;;;;;;;;;;;;;;;;4964022;28;134487;-66
2022/06/10 16:08:21;;;;;;;;;;;;;;;;;;4963103;28;137077;-66
2022/06/10 16:10:50;;;;;;;;;;;;;;;;;;4970621;28;106458;-67
2022/06/10 16:13:17;;;;;;;;;;;;;;;;;;4965116;28;135244;-65
2022/06/10 16:15:44;;;;;;;;;;;;;;;;;;4960448;28;116062;-67
2022/06/10 16:18:12;;;;;;;;;;;;;;;;;;4965297;28;120295;-66
2022/06/10 16:20:40;;;;;;;;;;;;;;;;;;4966200;28;137321;-65
2022/06/10 16:23:06;;;;;;;;;;;;;;;;;;4958455;28;122221;-65
2022/06/10 16:25:32;;;;;;;;;;;;;;;;;;4963004;28;135131;-65
2022/06/10 16:27:59;;;;;;;;;;;;;;;;;;4961286;28;108485;-65
2022/06/10 16:30:25;;;;;;;;;;;;;;;;;;4947059;28;130931;-66
2022/06/10 16:32:51;;;;;;;;;;;;;;;;;;4958633;28;136955;-65
2022/06/10 16:35:18;;;;;;;;;;;;;;;;;;4963931;28;126891;-65
2022/06/10 16:37:44;;;;;;;;;;;;;;;;;;4979446;28;124355;-66
2022/06/10 16:40:10;;;;;;;;;;;;;;;;;;4958521;28;136072;-66
2022/06/10 16:42:36;;;;;;;;;;;;;;;;;;4963296;28;129151;-66